createdAt,value
2022-12-27T00:00:02.227Z,9.10
2022-12-27T00:02:28.539Z,6.80
2022-12-27T00:04:54.812Z,7.10
2022-12-27T00:07:21.070Z,7.13
2022-12-27T00:09:47.313Z,7.37
2022-12-27T00:12:13.532Z,7.30
2022-12-27T00:14:39.834Z,7.03
2022-12-27T00:17:06.068Z,7.10
2022-12-27T00:19:32.316Z,7.10
2022-12-27T00:21:59.397Z,7.10
2022-12-27T00:24:25.637Z,7.10
2022-12-27T00:26:51.837Z,7.33
2022-12-27T00:29:18.104Z,7.30
2022-12-27T00:31:44.426Z,7.00
2022-12-27T00:34:10.936Z,7.07
2022-12-27T00:36:37.248Z,7.17
2022-12-27T00:39:03.896Z,7.20
2022-12-27T00:41:30.181Z,7.30
2022-12-27T00:43:56.453Z,7.40
2022-12-27T00:46:22.783Z,7.50
2022-12-27T00:48:49.002Z,7.20
2022-12-27T00:51:19.706Z,7.33
2022-12-27T00:53:46.331Z,7.20
2022-12-27T00:56:15.488Z,8.47
2022-12-27T00:58:41.728Z,6.90
2022-12-27T01:01:08.066Z,7.27
2022-12-27T01:03:34.364Z,7.00
2022-12-27T01:06:05.112Z,7.07
2022-12-27T01:08:31.535Z,7.00
2022-12-27T01:10:57.770Z,6.90
2022-12-27T01:13:23.995Z,7.10
2022-12-27T01:15:50.215Z,7.00
2022-12-27T01:18:16.420Z,7.17
2022-12-27T01:20:42.744Z,7.53
2022-12-27T01:23:08.987Z,7.10
2022-12-27T01:25:35.212Z,7.10
2022-12-27T01:28:01.454Z,7.50
2022-12-27T01:30:27.740Z,7.40
2022-12-27T01:32:53.934Z,7.20
2022-12-27T01:35:20.141Z,7.10
2022-12-27T01:37:46.437Z,7.10
2022-12-27T01:40:12.774Z,7.43
2022-12-27T01:42:55.445Z,7.10
2022-12-27T01:45:25.843Z,7.20
2022-12-27T01:48:12.987Z,6.90
2022-12-27T01:50:42.127Z,6.90
2022-12-27T01:53:14.451Z,7.10
2022-12-27T01:55:55.938Z,7.10
2022-12-27T01:58:26.021Z,7.10
2022-12-27T02:00:52.662Z,7.20
2022-12-27T02:03:23.609Z,6.97
2022-12-27T02:05:50.739Z,8.13
2022-12-27T02:08:23.827Z,6.80
2022-12-27T02:10:50.567Z,7.00
2022-12-27T02:13:16.815Z,7.30
2022-12-27T02:15:43.035Z,6.87
2022-12-27T02:18:09.259Z,7.33
2022-12-27T02:20:43.009Z,6.70
2022-12-27T02:23:57.609Z,6.80
2022-12-27T02:26:32.567Z,6.80
2022-12-27T02:28:58.738Z,7.23
2022-12-27T02:31:30.677Z,8.97
2022-12-27T02:33:58.397Z,7.10
2022-12-27T02:36:27.340Z,7.53
2022-12-27T02:38:55.501Z,6.80
2022-12-27T02:41:40.695Z,7.00
2022-12-27T02:44:25.337Z,6.97
2022-12-27T02:47:10.575Z,7.20
2022-12-27T02:49:56.749Z,7.20
2022-12-27T02:52:50.523Z,6.80
2022-12-27T02:55:23.792Z,7.43
2022-12-27T02:58:02.377Z,7.20
2022-12-27T03:00:48.445Z,7.60
2022-12-27T03:03:38.391Z,7.10
2022-12-27T03:06:38.804Z,7.10
2022-12-27T03:09:41.930Z,7.10
2022-12-27T03:12:37.355Z,7.00
2022-12-27T03:15:31.848Z,6.90
2022-12-27T03:18:04.006Z,7.50
2022-12-27T03:20:50.107Z,7.10
2022-12-27T03:23:35.466Z,6.93
2022-12-27T03:26:03.327Z,7.53
2022-12-27T03:28:49.006Z,6.90
2022-12-27T03:31:44.919Z,7.20
2022-12-27T03:34:32.234Z,7.10
2022-12-27T03:37:22.765Z,7.20
2022-12-27T03:40:02.212Z,7.00
2022-12-27T03:42:49.199Z,7.00
2022-12-27T03:45:15.720Z,7.13
2022-12-27T03:47:46.042Z,6.90
2022-12-27T03:50:25.537Z,7.30
2022-12-27T03:52:55.618Z,6.70
2022-12-27T03:55:22.398Z,6.90
2022-12-27T03:57:48.762Z,6.73
2022-12-27T04:00:15.176Z,6.90
2022-12-27T04:02:41.484Z,7.10
2022-12-27T04:05:08.449Z,7.30
2022-12-27T04:07:34.719Z,7.40
2022-12-27T04:10:19.719Z,7.53
2022-12-27T04:13:04.587Z,7.40
2022-12-27T04:15:49.572Z,7.00
2022-12-27T04:18:34.483Z,6.87
2022-12-27T04:21:19.576Z,7.10
2022-12-27T04:24:04.423Z,7.30
2022-12-27T04:26:49.181Z,7.07
2022-12-27T04:29:33.908Z,7.03
2022-12-27T04:32:18.659Z,7.10
2022-12-27T04:34:44.983Z,6.90
2022-12-27T04:37:15.404Z,6.93
2022-12-27T04:39:41.997Z,7.20
2022-12-27T04:42:27.896Z,6.90
2022-12-27T04:45:15.441Z,7.00
2022-12-27T04:48:00.475Z,7.23
2022-12-27T04:50:49.700Z,7.00
2022-12-27T04:53:35.873Z,7.20
2022-12-27T04:56:02.628Z,7.30
2022-12-27T04:58:29.258Z,7.30
2022-12-27T05:01:16.476Z,6.97
2022-12-27T05:03:43.146Z,7.10
2022-12-27T05:06:09.573Z,7.20
2022-12-27T05:08:54.724Z,7.30
2022-12-27T05:11:59.182Z,7.20
2022-12-27T05:14:25.419Z,7.30
2022-12-27T05:16:51.649Z,7.00
2022-12-27T05:19:17.925Z,7.30
2022-12-27T05:22:04.848Z,7.17
2022-12-27T05:24:49.811Z,7.20
2022-12-27T05:27:16.457Z,7.53
2022-12-27T05:29:42.775Z,7.30
2022-12-27T05:32:13.081Z,7.20
2022-12-27T05:34:39.639Z,7.30
2022-12-27T05:37:05.869Z,7.30
2022-12-27T05:39:32.110Z,7.10
2022-12-27T05:41:58.335Z,7.30
2022-12-27T05:44:24.555Z,7.60
2022-12-27T05:46:50.818Z,7.10
2022-12-27T05:49:17.145Z,7.20
2022-12-27T05:51:43.365Z,7.00
2022-12-27T05:54:09.771Z,7.20
2022-12-27T05:56:37.221Z,7.37
2022-12-27T05:59:04.013Z,6.97
2022-12-27T06:01:30.365Z,7.20
2022-12-27T06:03:56.755Z,7.10
2022-12-27T06:06:23.036Z,7.10
2022-12-27T06:08:49.263Z,7.13
2022-12-27T06:11:16.659Z,7.10
2022-12-27T06:13:44.393Z,7.10
2022-12-27T06:16:11.625Z,7.10
2022-12-27T06:18:38.687Z,7.47
2022-12-27T06:21:06.148Z,7.00
2022-12-27T06:23:33.325Z,6.77
2022-12-27T06:26:03.494Z,7.23
2022-12-27T06:28:29.705Z,7.30
2022-12-27T06:30:57.847Z,7.20
2022-12-27T06:33:24.073Z,6.73
2022-12-27T06:35:50.304Z,7.70
2022-12-27T06:38:16.576Z,7.17
2022-12-27T06:40:42.785Z,7.20
2022-12-27T06:43:09.058Z,7.10
2022-12-27T06:45:35.353Z,7.10
2022-12-27T06:48:01.574Z,7.23
2022-12-27T06:50:28.482Z,7.27
2022-12-27T06:52:54.733Z,7.30
2022-12-27T06:55:21.018Z,6.87
2022-12-27T06:57:47.292Z,7.20
2022-12-27T07:00:13.768Z,7.20
2022-12-27T07:02:40.169Z,7.10
2022-12-27T07:05:06.623Z,7.10
2022-12-27T07:07:32.843Z,7.30
2022-12-27T07:09:59.099Z,6.90
2022-12-27T07:12:25.333Z,7.17
2022-12-27T07:14:51.713Z,7.27
2022-12-27T07:17:17.916Z,7.60
2022-12-27T07:19:44.212Z,7.30
2022-12-27T07:22:10.417Z,7.10
2022-12-27T07:24:36.622Z,7.30
2022-12-27T07:27:02.959Z,7.07
2022-12-27T07:29:29.241Z,7.40
2022-12-27T07:31:55.563Z,7.20
2022-12-27T07:34:22.057Z,7.00
2022-12-27T07:36:48.320Z,6.93
2022-12-27T07:39:14.632Z,7.13
2022-12-27T07:41:40.862Z,7.00
2022-12-27T07:44:07.722Z,7.10
2022-12-27T07:46:34.610Z,7.20
2022-12-27T07:49:00.921Z,7.23
2022-12-27T07:51:27.388Z,7.30
2022-12-27T07:53:54.092Z,7.23
2022-12-27T07:56:25.844Z,7.40
2022-12-27T07:58:53.517Z,7.40
2022-12-27T08:01:21.019Z,7.10
2022-12-27T08:03:47.486Z,7.30
2022-12-27T08:06:21.602Z,7.23
2022-12-27T08:08:48.907Z,7.00
2022-12-27T08:11:15.118Z,7.10
2022-12-27T08:13:41.967Z,6.90
2022-12-27T08:16:13.444Z,7.20
2022-12-27T08:18:39.680Z,7.30
2022-12-27T08:21:06.367Z,6.90
2022-12-27T08:23:32.581Z,7.20
2022-12-27T08:25:58.997Z,7.10
2022-12-27T08:28:25.267Z,7.30
2022-12-27T08:30:51.746Z,7.50
2022-12-27T08:33:19.191Z,6.90
2022-12-27T08:35:54.296Z,7.17
2022-12-27T08:38:21.388Z,7.27
2022-12-27T08:40:47.642Z,8.27
2022-12-27T08:43:14.481Z,6.90
2022-12-27T08:45:40.742Z,7.03
2022-12-27T08:48:07.590Z,6.87
2022-12-27T08:50:34.010Z,7.23
2022-12-27T08:53:00.769Z,6.80
2022-12-27T08:55:27.997Z,7.27
2022-12-27T08:57:58.178Z,6.90
2022-12-27T09:00:24.942Z,7.20
2022-12-27T09:02:51.189Z,7.17
2022-12-27T09:05:18.406Z,6.80
2022-12-27T09:07:44.721Z,6.80
2022-12-27T09:10:10.943Z,7.00
2022-12-27T09:12:37.151Z,7.53
2022-12-27T09:15:03.541Z,7.00
2022-12-27T09:17:29.775Z,6.93
2022-12-27T09:19:55.982Z,7.40
2022-12-27T09:22:22.202Z,6.90
2022-12-27T09:24:48.481Z,6.90
2022-12-27T09:27:14.701Z,6.70
2022-12-27T09:29:46.447Z,6.90
2022-12-27T09:32:14.539Z,7.20
2022-12-27T09:34:41.162Z,7.40
2022-12-27T09:37:07.479Z,7.10
2022-12-27T09:39:33.815Z,7.17
2022-12-27T09:42:48.479Z,7.17
2022-12-27T09:45:05.447Z,6.87
2022-12-27T09:47:34.269Z,7.00
2022-12-27T09:50:06.381Z,7.00
2022-12-27T09:52:35.682Z,7.00
2022-12-27T09:55:07.785Z,7.00
2022-12-27T09:57:35.825Z,6.60
2022-12-27T10:00:05.553Z,6.63
2022-12-27T10:02:33.310Z,6.80
2022-12-27T10:08:04.906Z,6.70
2022-12-27T10:10:42.501Z,6.87
2022-12-27T10:13:08.762Z,6.60
2022-12-27T10:15:48.113Z,6.50
2022-12-27T10:18:19.883Z,6.50
2022-12-27T10:20:53.375Z,6.40
2022-12-27T10:23:22.953Z,6.43
2022-12-27T10:25:50.874Z,6.40
2022-12-27T10:28:19.640Z,6.60
2022-12-27T10:30:45.943Z,6.30
2022-12-27T10:33:26.463Z,6.60
2022-12-27T10:35:52.753Z,6.63
2022-12-27T10:38:19.804Z,6.50
2022-12-27T10:40:53.847Z,6.50
2022-12-27T10:43:23.387Z,6.50
2022-12-27T10:45:49.598Z,6.40
2022-12-27T10:48:16.402Z,6.27
2022-12-27T10:51:03.071Z,6.20
2022-12-27T10:53:29.325Z,6.40
2022-12-27T10:56:06.587Z,6.40
2022-12-27T10:58:40.693Z,6.30
2022-12-27T11:01:14.314Z,6.20
2022-12-27T11:03:40.605Z,6.30
2022-12-27T11:06:16.989Z,6.20
2022-12-27T11:08:43.275Z,6.30
2022-12-27T11:11:13.783Z,6.30
2022-12-27T11:13:40.417Z,6.30
2022-12-27T11:16:12.267Z,6.10
2022-12-27T11:18:43.438Z,6.20
2022-12-27T11:21:20.176Z,6.30
2022-12-27T11:23:54.603Z,6.20
2022-12-27T11:26:25.238Z,6.20
2022-12-27T11:28:56.635Z,6.30
2022-12-27T11:31:31.259Z,6.20
2022-12-27T11:33:58.870Z,6.30
2022-12-27T11:36:30.837Z,6.00
2022-12-27T11:38:57.720Z,6.30
2022-12-27T11:41:44.369Z,6.00
2022-12-27T11:44:21.962Z,6.37
2022-12-27T11:46:59.030Z,6.03
2022-12-27T11:49:32.279Z,6.10
2022-12-27T11:52:14.121Z,6.20
2022-12-27T11:54:51.058Z,6.10
2022-12-27T11:57:36.215Z,6.20
2022-12-27T12:00:11.602Z,6.00
2022-12-27T12:02:49.960Z,6.10
2022-12-27T12:05:35.051Z,6.13
2022-12-27T12:08:20.315Z,6.30
2022-12-27T12:10:46.659Z,6.10
2022-12-27T12:13:12.854Z,5.80
2022-12-27T12:15:54.355Z,5.83
2022-12-27T12:18:23.598Z,5.93
2022-12-27T12:20:52.908Z,5.87
2022-12-27T12:23:42.142Z,5.80
2022-12-27T12:26:08.388Z,6.10
2022-12-27T12:28:59.243Z,5.70
2022-12-27T12:31:35.474Z,5.83
2022-12-27T12:34:20.671Z,5.80
2022-12-27T12:36:56.095Z,5.80
2022-12-27T12:39:39.643Z,5.70
2022-12-27T12:42:20.128Z,6.00
2022-12-27T12:44:49.463Z,5.57
2022-12-27T12:47:28.245Z,5.30
2022-12-27T12:49:54.462Z,5.73
2022-12-27T12:52:35.105Z,5.50
2022-12-27T12:55:20.337Z,5.40
2022-12-27T12:58:02.496Z,5.20
2022-12-27T13:00:31.777Z,5.20
2022-12-27T13:03:16.891Z,5.10
2022-12-27T13:05:46.234Z,5.00
2022-12-27T13:08:20.498Z,5.10
2022-12-27T13:11:01.939Z,5.00
2022-12-27T13:13:38.200Z,5.23
2022-12-27T13:16:04.403Z,5.43
2022-12-27T13:18:40.519Z,4.87
2022-12-27T13:21:09.792Z,5.00
2022-12-27T13:23:56.615Z,4.70
2022-12-27T13:26:41.752Z,4.63
2022-12-27T13:29:46.666Z,5.00
2022-12-27T13:32:25.824Z,4.90
2022-12-27T13:35:03.069Z,5.03
2022-12-27T13:37:35.481Z,5.10
2022-12-27T13:40:04.772Z,5.23
2022-12-27T13:42:34.089Z,5.23
2022-12-27T13:45:03.624Z,5.30
2022-12-27T13:47:32.957Z,5.30
2022-12-27T13:50:14.581Z,5.60
2022-12-27T13:53:00.141Z,5.40
2022-12-27T13:55:45.515Z,5.53
2022-12-27T13:58:30.588Z,5.47
2022-12-27T14:00:59.923Z,5.50
2022-12-27T14:03:44.979Z,6.00
2022-12-27T14:06:33.886Z,5.80
2022-12-27T14:09:09.831Z,6.00
2022-12-27T14:11:45.262Z,5.87
2022-12-27T14:14:12.385Z,5.60
2022-12-27T14:16:48.215Z,5.90
2022-12-27T14:19:14.433Z,5.80
2022-12-27T14:21:40.620Z,5.80
2022-12-27T14:24:15.976Z,5.70
2022-12-27T14:26:42.241Z,5.67
2022-12-27T14:29:27.499Z,5.60
2022-12-27T14:32:02.906Z,5.70
2022-12-27T14:34:32.201Z,6.00
2022-12-27T14:37:17.469Z,5.70
2022-12-27T14:40:02.472Z,5.70
2022-12-27T14:42:37.855Z,5.90
2022-12-27T14:45:23.150Z,5.60
2022-12-27T14:47:52.422Z,5.90
2022-12-27T14:50:30.908Z,6.60
2022-12-27T14:53:16.164Z,5.80
2022-12-27T14:56:01.856Z,6.20
2022-12-27T14:58:43.249Z,6.10
2022-12-27T15:01:28.406Z,5.80
2022-12-27T15:04:03.239Z,6.10
2022-12-27T15:06:39.965Z,5.90
2022-12-27T15:09:14.366Z,6.27
2022-12-27T15:11:46.639Z,6.10
2022-12-27T15:14:12.858Z,6.17
2022-12-27T15:16:46.536Z,6.00
2022-12-27T15:19:12.787Z,6.10
2022-12-27T15:21:44.968Z,6.10
2022-12-27T15:24:23.673Z,6.20
2022-12-27T15:27:07.999Z,6.20
2022-12-27T15:29:37.347Z,6.00
2022-12-27T15:32:09.302Z,6.00
2022-12-27T15:34:45.177Z,6.30
2022-12-27T15:37:30.464Z,6.07
2022-12-27T15:39:56.866Z,6.23
2022-12-27T15:42:29.201Z,6.20
2022-12-27T15:45:07.134Z,6.00
2022-12-27T15:47:48.731Z,6.23
2022-12-27T15:50:27.189Z,6.20
2022-12-27T15:53:16.462Z,6.50
2022-12-27T15:55:42.762Z,6.17
2022-12-27T15:58:14.926Z,6.20
2022-12-27T16:00:41.923Z,6.40
2022-12-27T16:03:27.255Z,6.20
2022-12-27T16:05:53.935Z,6.40
2022-12-27T16:08:31.430Z,6.17
2022-12-27T16:10:58.136Z,6.30
2022-12-27T16:13:36.002Z,6.10
2022-12-27T16:16:32.274Z,6.53
2022-12-27T16:19:04.581Z,6.50
2022-12-27T16:21:41.581Z,6.20
2022-12-27T16:24:13.572Z,6.40
2022-12-27T16:26:47.724Z,6.30
2022-12-27T16:29:15.200Z,6.50
2022-12-27T16:31:49.151Z,6.47
2022-12-27T16:34:24.100Z,6.70
2022-12-27T16:36:51.907Z,6.40
2022-12-27T16:39:27.185Z,6.70
2022-12-27T16:41:56.639Z,6.63
2022-12-27T16:44:22.845Z,6.63
2022-12-27T16:46:57.782Z,6.30
2022-12-27T16:49:24.172Z,6.50
2022-12-27T16:52:09.273Z,6.50
2022-12-27T16:54:50.554Z,6.40
2022-12-27T16:57:39.933Z,6.70
2022-12-27T17:00:24.979Z,6.43
2022-12-27T17:02:51.322Z,6.70
2022-12-27T17:05:17.751Z,6.60
2022-12-27T17:08:08.716Z,6.80
2022-12-27T17:10:49.972Z,6.60
2022-12-27T17:13:16.621Z,6.67
2022-12-27T17:16:05.055Z,6.50
2022-12-27T17:18:33.589Z,6.80
2022-12-27T17:21:07.999Z,6.93
2022-12-27T17:23:38.412Z,6.30
2022-12-27T17:26:24.893Z,6.50
2022-12-27T17:29:00.533Z,6.60
2022-12-27T17:31:26.787Z,6.70
2022-12-27T17:34:07.917Z,6.60
2022-12-27T17:36:46.289Z,6.83
2022-12-27T17:39:31.773Z,6.50
2022-12-27T17:42:26.657Z,6.70
2022-12-27T17:44:55.639Z,7.00
2022-12-27T17:47:40.678Z,6.80
2022-12-27T17:50:12.247Z,6.70
2022-12-27T17:52:57.119Z,7.20
2022-12-27T17:55:46.082Z,7.37
2022-12-27T17:58:13.660Z,6.60
2022-12-27T18:00:52.534Z,6.90
2022-12-27T18:03:18.849Z,6.53
2022-12-27T18:05:46.383Z,6.53
2022-12-27T18:08:18.824Z,6.80
2022-12-27T18:10:45.291Z,6.70
2022-12-27T18:13:16.252Z,6.70
2022-12-27T18:15:44.098Z,6.70
2022-12-27T18:18:16.261Z,7.03
2022-12-27T18:20:42.780Z,6.80
2022-12-27T18:23:10.353Z,6.97
2022-12-27T18:25:37.866Z,6.70
2022-12-27T18:28:06.206Z,6.67
2022-12-27T18:30:35.866Z,6.87
2022-12-27T18:33:02.677Z,7.10
2022-12-27T18:35:29.444Z,7.20
2022-12-27T18:37:55.725Z,6.90
2022-12-27T18:40:23.486Z,6.43
2022-12-27T18:42:52.853Z,7.20
2022-12-27T18:45:21.049Z,6.90
2022-12-27T18:47:48.839Z,6.70
2022-12-27T18:50:19.494Z,6.70
2022-12-27T18:52:49.837Z,6.60
2022-12-27T18:55:26.638Z,6.60
2022-12-27T18:58:06.561Z,6.70
2022-12-27T19:00:34.499Z,6.70
2022-12-27T19:03:14.707Z,7.43
2022-12-27T19:05:55.744Z,6.93
2022-12-27T19:08:24.334Z,6.67
2022-12-27T19:10:51.751Z,6.83
2022-12-27T19:13:21.230Z,6.80
2022-12-27T19:15:47.741Z,6.80
2022-12-27T19:18:23.369Z,6.60
2022-12-27T19:20:57.276Z,6.93
2022-12-27T19:23:25.426Z,7.20
2022-12-27T19:26:03.025Z,6.90
2022-12-27T19:28:29.991Z,7.03
2022-12-27T19:31:17.939Z,6.90
2022-12-27T19:33:46.407Z,6.80
2022-12-27T19:36:13.241Z,6.90
2022-12-27T19:38:47.548Z,6.63
2022-12-27T19:41:14.881Z,6.87
2022-12-27T19:43:45.401Z,6.63
2022-12-27T19:46:12.407Z,6.70
2022-12-27T19:48:39.285Z,6.63
2022-12-27T19:51:06.208Z,6.60
2022-12-27T19:53:36.536Z,7.13
2022-12-27T19:56:03.386Z,6.80
2022-12-27T19:58:30.668Z,6.80
2022-12-27T20:00:57.658Z,6.70
2022-12-27T20:03:23.986Z,7.20
2022-12-27T20:06:13.921Z,6.67
2022-12-27T20:08:44.546Z,6.90
2022-12-27T20:11:13.453Z,6.83
2022-12-27T20:13:39.919Z,6.80
2022-12-27T20:16:06.560Z,6.70
2022-12-27T20:18:32.975Z,6.80
2022-12-27T20:20:59.292Z,6.90
2022-12-27T20:23:25.885Z,6.87
2022-12-27T20:25:52.141Z,6.80
2022-12-27T20:28:18.982Z,7.57
2022-12-27T20:30:46.183Z,6.90
2022-12-27T20:33:12.448Z,6.90
2022-12-27T20:35:38.734Z,6.70
2022-12-27T20:38:05.276Z,6.83
2022-12-27T20:40:31.626Z,7.10
2022-12-27T20:42:58.193Z,6.70
2022-12-27T20:45:24.605Z,7.20
2022-12-27T20:47:50.854Z,6.90
2022-12-27T20:50:17.119Z,6.90
2022-12-27T20:52:43.399Z,6.90
2022-12-27T20:55:10.707Z,6.67
2022-12-27T20:57:37.657Z,7.17
2022-12-27T21:00:04.780Z,6.90
2022-12-27T21:02:31.207Z,6.70
2022-12-27T21:04:57.512Z,6.80
2022-12-27T21:07:23.787Z,7.23
2022-12-27T21:09:50.069Z,6.70
2022-12-27T21:12:16.481Z,7.00
2022-12-27T21:14:42.739Z,6.63
2022-12-27T21:17:08.993Z,7.00
2022-12-27T21:19:35.222Z,7.10
2022-12-27T21:22:01.500Z,6.80
2022-12-27T21:24:27.730Z,6.90
2022-12-27T21:26:56.563Z,6.77
2022-12-27T21:29:23.021Z,6.77
2022-12-27T21:31:49.501Z,8.63
2022-12-27T21:34:16.256Z,6.50
2022-12-27T21:36:42.610Z,6.80
2022-12-27T21:39:08.910Z,6.63
2022-12-27T21:41:36.904Z,6.50
2022-12-27T21:44:03.713Z,8.10
2022-12-27T21:46:31.565Z,6.70
2022-12-27T21:48:59.212Z,6.93
2022-12-27T21:51:25.676Z,6.70
2022-12-27T21:53:52.239Z,6.80
2022-12-27T21:56:18.512Z,6.83
2022-12-27T21:58:45.481Z,6.90
2022-12-27T22:01:16.570Z,7.07
2022-12-27T22:03:44.274Z,6.90
2022-12-27T22:06:11.558Z,6.70
2022-12-27T22:08:38.094Z,7.00
2022-12-27T22:11:04.488Z,7.00
2022-12-27T22:13:30.894Z,6.90
2022-12-27T22:15:58.061Z,7.00
2022-12-27T22:18:24.584Z,6.90
2022-12-27T22:20:50.961Z,7.27
2022-12-27T22:23:17.281Z,6.70
2022-12-27T22:25:44.472Z,6.70
2022-12-27T22:28:10.803Z,6.77
2022-12-27T22:30:40.658Z,6.90
2022-12-27T22:33:06.937Z,6.63
2022-12-27T22:35:33.620Z,6.80
2022-12-27T22:37:59.942Z,6.70
2022-12-27T22:40:40.824Z,7.23
2022-12-27T22:43:12.438Z,7.27
2022-12-27T22:45:40.482Z,6.70
2022-12-27T22:48:07.154Z,6.60
2022-12-27T22:50:33.349Z,6.70
2022-12-27T22:52:59.584Z,6.70
2022-12-27T22:55:25.774Z,6.70
2022-12-27T22:57:52.250Z,6.70
2022-12-27T23:00:18.923Z,6.80
2022-12-27T23:02:45.230Z,6.73
2022-12-27T23:05:11.504Z,6.80
2022-12-27T23:08:03.294Z,6.90
2022-12-27T23:10:23.888Z,7.00
2022-12-27T23:12:50.112Z,6.80
2022-12-27T23:15:16.348Z,6.90
2022-12-27T23:17:42.587Z,7.20
2022-12-27T23:20:09.212Z,6.80
2022-12-27T23:22:35.411Z,7.20
2022-12-27T23:25:01.609Z,6.70
2022-12-27T23:27:27.831Z,6.70
2022-12-27T23:29:55.066Z,6.60
2022-12-27T23:32:21.302Z,7.67
2022-12-27T23:34:47.523Z,6.80
2022-12-27T23:37:13.808Z,7.00
2022-12-27T23:39:40.051Z,6.97
2022-12-27T23:42:06.293Z,6.87
2022-12-27T23:44:34.567Z,6.60
2022-12-27T23:47:01.941Z,6.57
2022-12-27T23:49:28.204Z,6.80
2022-12-27T23:51:54.472Z,7.03
2022-12-27T23:54:20.691Z,6.80
2022-12-27T23:56:47.097Z,6.60
2022-12-27T23:59:13.361Z,7.13
